Catalina King — WDC3343 — position and weather

sailwx.info

Track history (hours):
 
Tides and Currents Weather Stations Pressure Air Temp Water Temp Dewpoint Dewpoint Depression Visibility Wind Speed Wind Dir Waves Ship Positions

Catalina King

Owner: CATALINA CLASSIC CRUISES, INC., SAN DIEGO, CA. More information available from US FCC via Universal Licensing System and Coast Guard Vessel Documentation Center.

Last reported at 2018-Feb-18 22:57 UTC. Time now 2018-Feb-20 06:13 UTC.
Position N 33°45' W 118°12'.

Length 39 m; draft 3.3 m.

Type: Ship. MMSI: 367006280.

Date/timePositionNaut miles runAvg speedWind from/ knotsBaromVisibWave heightAir tempDewpointWater temp
2018-Feb-18 22:57N 33°45' W 118°12'0 0.0
2018-Feb-18 22:30N 33°45' W 118°12'0 0.0
2018-Feb-18 22:00N 33°45' W 118°12'3 6.8
2018-Feb-18 21:30N 33°42' W 118°11'612.3
2018-Feb-18 21:00N 33°36' W 118°14'14 8.3
2018-Feb-18 19:18N 33°23' W 118°21'912.4
2018-Feb-18 18:33N 33°32' W 118°17'112.1
2018-Feb-18 18:30N 33°32' W 118°16'612.2
2018-Feb-18 17:59N 33°38' W 118°14'612.1
2018-Feb-18 17:30N 33°44' W 118°11'2 3.1
2018-Feb-18 17:00N 33°45' W 118°12'0 0.0
2018-Feb-16 23:44N 33°45' W 118°12'0 0.0
2018-Feb-16 23:27N 33°45' W 118°12'0 0.0
2018-Feb-16 23:00N 33°45' W 118°12'0 0.0
2018-Feb-16 22:30N 33°45' W 118°12'5 9.4
2018-Feb-16 22:00N 33°41' W 118°11'612.2
2018-Feb-16 21:30N 33°35' W 118°14'2 0.7
2018-Feb-16 18:26N 33°33' W 118°15'512.3
2018-Feb-16 18:00N 33°38' W 118°13'612.4
2018-Feb-16 17:30N 33°44' W 118°11'2 3.0
2018-Feb-16 17:00N 33°45' W 118°12'0 0.0
2018-Feb-16 16:30N 33°45' W 118°12'0 0.0
2018-Feb-15 15:34N 33°45' W 118°12'0 0.9
2018-Feb-15 15:30N 33°45' W 118°12'0 0.0
2018-Feb-14 23:08N 33°45' W 118°12'0 0.0
2018-Feb-14 23:00N 33°45' W 118°12'5 9.4
2018-Feb-14 22:30N 33°40' W 118°11'611.8
2018-Feb-14 22:00N 33°35' W 118°15'2 0.5
2018-Feb-14 18:36N 33°34' W 118°16'112.2
2018-Feb-14 18:30N 33°35' W 118°15'612.3
2018-Feb-14 18:00N 33°40' W 118°12'5 9.9
2018-Feb-14 17:30N 33°45' W 118°12'0 0.1
2018-Feb-14 17:00N 33°45' W 118°12'0 0.0
2018-Feb-14 16:30N 33°45' W 118°12'0 0.0
2018-Feb-12 22:26N 33°45' W 118°12'4 8.7
2018-Feb-12 22:00N 33°41' W 118°11'612.0
2018-Feb-12 21:30N 33°36' W 118°14'4 1.3
2018-Feb-12 18:41N 33°33' W 118°15'211.8
2018-Feb-12 18:30N 33°35' W 118°14'611.9
2018-Feb-12 18:00N 33°40' W 118°12'5 9.7
2018-Feb-12 17:30N 33°45' W 118°12'0 0.1
2018-Feb-12 16:59N 33°45' W 118°12'0 0.0
2018-Feb-11 23:16N 33°45' W 118°12'0 0.0
2018-Feb-11 23:01N 33°45' W 118°12'0 0.0
2018-Feb-11 22:31N 33°45' W 118°12'2 4.8
2018-Feb-11 22:01N 33°43' W 118°11'612.1
2018-Feb-11 21:30N 33°37' W 118°13'712.3
2018-Feb-11 20:58N 33°31' W 118°17'612.4
2018-Feb-11 20:30N 33°26' W 118°21'3 2.2
2018-Feb-11 19:09N 33°23' W 118°21'212.2
2018-Feb-11 18:58N 33°25' W 118°20'612.4
2018-Feb-11 18:30N 33°31' W 118°17'612.5
2018-Feb-11 18:01N 33°36' W 118°14'612.5
2018-Feb-11 17:31N 33°42' W 118°11'3 6.2
2018-Feb-11 17:00N 33°45' W 118°12'0 0.0
2018-Feb-11 16:29N 33°45' W 118°12'0 0.0
2018-Feb-09 23:12N 33°45' W 118°12'1 5.1
2018-Feb-09 23:01N 33°44' W 118°11'312.0
2018-Feb-09 22:46N 33°42' W 118°11'6 1.4
2018-Feb-09 18:31N 33°36' W 118°14'612.1
2018-Feb-09 18:01N 33°42' W 118°12'  
Track history (hours):
 
Tides and Currents Weather Stations Pressure Air Temp Water Temp Dewpoint Dewpoint Depression Visibility Wind Speed Wind Dir Waves Ship Positions

Catalina King

Owner: CATALINA CLASSIC CRUISES, INC., SAN DIEGO, CA. More information available from US FCC via Universal Licensing System and Coast Guard Vessel Documentation Center.

Last reported at 2018-Feb-18 22:57 UTC. Time now 2018-Feb-20 06:13 UTC.
Position N 33°45' W 118°12'.

Length 39 m; draft 3.3 m.

Type: Ship. MMSI: 367006280.

Date/timePositionNaut miles runAvg speedWind from/ knotsBaromVisibWave heightAir tempDewpointWater temp
2018-Feb-18 22:57N 33°45' W 118°12'0 0.0
2018-Feb-18 22:30N 33°45' W 118°12'0 0.0
2018-Feb-18 22:00N 33°45' W 118°12'3 6.8
2018-Feb-18 21:30N 33°42' W 118°11'612.3
2018-Feb-18 21:00N 33°36' W 118°14'14 8.3
2018-Feb-18 19:18N 33°23' W 118°21'912.4
2018-Feb-18 18:33N 33°32' W 118°17'112.1
2018-Feb-18 18:30N 33°32' W 118°16'612.2
2018-Feb-18 17:59N 33°38' W 118°14'612.1
2018-Feb-18 17:30N 33°44' W 118°11'2 3.1
2018-Feb-18 17:00N 33°45' W 118°12'0 0.0
2018-Feb-16 23:44N 33°45' W 118°12'0 0.0
2018-Feb-16 23:27N 33°45' W 118°12'0 0.0
2018-Feb-16 23:00N 33°45' W 118°12'0 0.0
2018-Feb-16 22:30N 33°45' W 118°12'5 9.4
2018-Feb-16 22:00N 33°41' W 118°11'612.2
2018-Feb-16 21:30N 33°35' W 118°14'2 0.7
2018-Feb-16 18:26N 33°33' W 118°15'512.3
2018-Feb-16 18:00N 33°38' W 118°13'612.4
2018-Feb-16 17:30N 33°44' W 118°11'2 3.0
2018-Feb-16 17:00N 33°45' W 118°12'0 0.0
2018-Feb-16 16:30N 33°45' W 118°12'0 0.0
2018-Feb-15 15:34N 33°45' W 118°12'0 0.9
2018-Feb-15 15:30N 33°45' W 118°12'0 0.0
2018-Feb-14 23:08N 33°45' W 118°12'0 0.0
2018-Feb-14 23:00N 33°45' W 118°12'5 9.4
2018-Feb-14 22:30N 33°40' W 118°11'611.8
2018-Feb-14 22:00N 33°35' W 118°15'2 0.5
2018-Feb-14 18:36N 33°34' W 118°16'112.2
2018-Feb-14 18:30N 33°35' W 118°15'612.3
2018-Feb-14 18:00N 33°40' W 118°12'5 9.9
2018-Feb-14 17:30N 33°45' W 118°12'0 0.1
2018-Feb-14 17:00N 33°45' W 118°12'0 0.0
2018-Feb-14 16:30N 33°45' W 118°12'0 0.0
2018-Feb-12 22:26N 33°45' W 118°12'4 8.7
2018-Feb-12 22:00N 33°41' W 118°11'612.0
2018-Feb-12 21:30N 33°36' W 118°14'4 1.3
2018-Feb-12 18:41N 33°33' W 118°15'211.8
2018-Feb-12 18:30N 33°35' W 118°14'611.9
2018-Feb-12 18:00N 33°40' W 118°12'5 9.7
2018-Feb-12 17:30N 33°45' W 118°12'0 0.1
2018-Feb-12 16:59N 33°45' W 118°12'0 0.0
2018-Feb-11 23:16N 33°45' W 118°12'0 0.0
2018-Feb-11 23:01N 33°45' W 118°12'0 0.0
2018-Feb-11 22:31N 33°45' W 118°12'2 4.8
2018-Feb-11 22:01N 33°43' W 118°11'612.1
2018-Feb-11 21:30N 33°37' W 118°13'712.3
2018-Feb-11 20:58N 33°31' W 118°17'612.4
2018-Feb-11 20:30N 33°26' W 118°21'3 2.2
2018-Feb-11 19:09N 33°23' W 118°21'212.2
2018-Feb-11 18:58N 33°25' W 118°20'612.4
2018-Feb-11 18:30N 33°31' W 118°17'612.5
2018-Feb-11 18:01N 33°36' W 118°14'612.5
2018-Feb-11 17:31N 33°42' W 118°11'3 6.2
2018-Feb-11 17:00N 33°45' W 118°12'0 0.0
2018-Feb-11 16:29N 33°45' W 118°12'0 0.0
2018-Feb-09 23:12N 33°45' W 118°12'1 5.1
2018-Feb-09 23:01N 33°44' W 118°11'312.0
2018-Feb-09 22:46N 33°42' W 118°11'6 1.4
2018-Feb-09 18:31N 33°36' W 118°14'612.1
2018-Feb-09 18:01N 33°42' W 118°12'  

Dump ship's entire track history